createdAt,value
2019-01-04T17:20:21.897Z,99456.27
2019-01-04T17:22:50.231Z,99451.92
2019-01-04T17:25:18.702Z,99444.42
2019-01-04T17:27:47.008Z,99433.19
2019-01-04T17:30:15.345Z,99439.06
2019-01-04T17:32:44.011Z,99442.53
2019-01-04T17:35:12.342Z,99430.77
2019-01-04T17:37:40.655Z,99425.38
2019-01-04T17:40:09.650Z,99429.98
2019-01-04T17:42:37.969Z,99434.56
2019-01-04T17:45:07.542Z,99416.59
2019-01-04T17:47:35.856Z,99417.77
2019-01-04T17:50:04.918Z,99414.93
2019-01-04T17:52:33.229Z,99408.31
2019-01-04T17:55:01.558Z,99408.27
2019-01-04T17:57:29.863Z,99416.27
2019-01-04T17:59:58.190Z,99408.34
2019-01-04T18:02:26.500Z,99413.97
2019-01-04T18:04:54.832Z,99413.41
2019-01-04T18:07:23.146Z,99421.50
2019-01-04T18:09:51.473Z,99409.09
2019-01-04T18:12:19.779Z,99397.26
2019-01-04T18:14:48.170Z,99407.65
2019-01-04T18:17:16.827Z,99403.09
2019-01-04T18:19:45.169Z,99398.87
2019-01-04T18:22:13.475Z,99403.39
2019-01-04T18:24:41.990Z,99400.87
2019-01-04T18:27:10.312Z,99396.52
2019-01-04T18:29:38.647Z,99383.29
2019-01-04T18:32:07.320Z,99390.53
2019-01-04T18:34:35.665Z,99375.16
2019-01-04T18:37:03.985Z,99379.66
2019-01-04T18:39:32.318Z,99372.97
2019-01-04T18:42:00.697Z,99367.82
2019-01-04T18:44:29.025Z,99385.97
2019-01-04T18:46:57.336Z,99373.55
2019-01-04T18:49:26.098Z,99364.34
2019-01-04T18:51:54.793Z,99364.80
2019-01-04T18:54:23.126Z,99354.03
2019-01-04T18:56:51.575Z,99339.70
2019-01-04T18:59:19.913Z,99353.23
2019-01-04T19:01:48.215Z,99373.69
2019-01-04T19:04:16.636Z,99362.08
2019-01-04T19:06:45.085Z,99365.97
2019-01-04T19:09:13.762Z,99367.57
2019-01-04T19:11:43.553Z,99376.17
2019-01-04T19:14:12.281Z,99364.80
2019-01-04T19:16:40.592Z,99353.15
2019-01-04T19:19:08.990Z,99354.16
2019-01-04T19:21:37.372Z,99341.30
2019-01-04T19:24:05.772Z,99346.00
2019-01-04T19:26:34.189Z,99345.21
2019-01-04T19:29:02.527Z,99337.08
2019-01-04T19:31:30.842Z,99361.13
2019-01-04T19:33:59.160Z,99339.75
2019-01-04T19:36:27.714Z,99326.91
2019-01-04T19:38:56.020Z,99327.36
2019-01-04T19:41:24.328Z,99314.91
2019-01-04T19:43:53.055Z,99326.56
2019-01-04T19:46:21.376Z,99308.42
2019-01-04T19:48:49.706Z,99324.53
2019-01-04T19:51:18.408Z,99312.30
2019-01-04T19:53:46.828Z,99312.78
2019-01-04T19:56:15.203Z,99313.52
2019-01-04T19:58:43.527Z,99306.99
2019-01-04T20:01:11.834Z,99309.87
2019-01-04T20:03:40.350Z,99309.89
2019-01-04T20:06:59.057Z,99323.64
2019-01-04T20:10:04.892Z,99305.03
2019-01-04T20:13:14.801Z,99304.44
2019-01-04T20:15:53.432Z,99294.66
2019-01-04T20:18:23.471Z,99299.77
2019-01-04T20:21:02.163Z,99308.91
2019-01-04T20:23:47.172Z,99317.61
2019-01-04T20:26:33.134Z,99329.05
2019-01-04T20:29:19.593Z,99320.24
2019-01-04T20:31:52.200Z,99327.94
2019-01-04T20:34:37.248Z,99323.06
2019-01-04T20:37:16.013Z,99315.55
2019-01-04T20:39:54.512Z,99309.87
2019-01-04T20:42:42.513Z,99318.61
2019-01-04T20:45:30.724Z,99313.68
2019-01-04T20:48:16.712Z,99333.00
2019-01-04T20:50:55.358Z,99327.09
2019-01-04T20:53:25.381Z,99328.27
2019-01-04T20:56:13.535Z,99325.33
2019-01-04T20:58:46.180Z,99330.48
2019-01-04T21:01:22.028Z,99325.84
2019-01-04T21:04:08.100Z,99329.78
2019-01-04T21:06:40.973Z,99339.91
2019-01-04T21:09:16.799Z,99326.05
2019-01-04T21:12:03.115Z,99336.63
2019-01-04T21:14:49.175Z,99333.06
2019-01-04T21:17:19.515Z,99334.30
2019-01-04T21:19:52.874Z,99337.08
2019-01-04T21:22:25.798Z,99338.25
2019-01-04T21:24:58.168Z,99343.25
2019-01-04T21:27:30.865Z,99334.70
2019-01-04T21:30:01.173Z,99335.59
2019-01-04T21:32:46.115Z,99334.61
2019-01-04T21:35:27.826Z,99328.17
2019-01-04T21:38:06.813Z,99346.58
2019-01-04T21:40:36.767Z,99328.80
2019-01-04T21:43:22.930Z,99335.20
2019-01-04T21:46:11.293Z,99329.44
2019-01-04T21:48:43.746Z,99328.34
2019-01-04T21:51:13.692Z,99326.61
2019-01-04T21:53:46.465Z,99309.31
2019-01-04T21:56:16.415Z,99312.11
2019-01-04T21:59:04.771Z,99323.22
2019-01-04T22:01:34.719Z,99318.62
2019-01-04T22:04:07.384Z,99316.82
2019-01-04T22:06:53.446Z,99318.06
2019-01-04T22:09:23.393Z,99313.13
2019-01-04T22:11:56.457Z,99320.00
2019-01-04T22:14:29.374Z,99318.22
2019-01-04T22:17:15.259Z,99310.96
2019-01-04T22:19:57.068Z,99302.74
2019-01-04T22:22:39.377Z,99325.41
2019-01-04T22:25:15.285Z,99313.55
2019-01-04T22:28:01.136Z,99301.07
2019-01-04T22:30:47.171Z,99309.88
2019-01-04T22:33:33.613Z,99293.74
2019-01-04T22:36:03.563Z,99289.13
2019-01-04T22:38:39.255Z,99278.63
2019-01-04T22:41:09.213Z,99282.84
2019-01-04T22:43:41.634Z,99291.13
2019-01-04T22:46:27.634Z,99275.86
2019-01-04T22:49:06.461Z,99272.75
2019-01-04T22:51:38.879Z,99267.92
2019-01-04T22:54:24.875Z,99265.01
2019-01-04T22:56:54.828Z,99275.56
2019-01-04T22:59:28.025Z,99257.45
2019-01-04T23:02:06.718Z,99261.55
2019-01-04T23:04:45.131Z,99269.33
2019-01-04T23:07:18.145Z,99266.28
2019-01-04T23:09:56.965Z,99271.64
2019-01-04T23:12:32.395Z,99265.84
2019-01-04T23:15:20.592Z,99264.23
2019-01-04T23:17:50.565Z,99273.45
2019-01-04T23:20:29.673Z,99252.95
2019-01-04T23:23:08.634Z,99261.08
2019-01-04T23:25:50.235Z,99256.59
2019-01-04T23:28:36.307Z,99250.62
2019-01-04T23:31:15.339Z,99258.21
2019-01-04T23:33:57.100Z,99251.00
2019-01-04T23:36:35.886Z,99260.49
2019-01-04T23:39:09.575Z,99249.62
2019-01-04T23:41:48.428Z,99254.93
2019-01-04T23:44:34.286Z,99250.06
2019-01-04T23:47:07.013Z,99233.06
2019-01-04T23:49:36.965Z,99254.16
2019-01-04T23:52:07.008Z,99231.66
2019-01-04T23:54:42.899Z,99228.07
2019-01-04T23:57:12.869Z,99229.61
